WICT2: Wichita River At Wichita Falls, TX

                                SHEF ID:       WICT2     Wichita Rv at Wichita Falls, TX
STATION TYPE:
Regulating: Stage = 18.50, Flow = 5482

PRECIP STAGE RIV-FLOW WTR-TEMP CONDUCT BAT-LOAD
in ft cfs F umho/cm volt
Ccp-Rev Ccp-Rev Ccp-Rev Ccp-Rev Ccp-Rev Ccp-Rev
(America/Chicago)
05/02 00:00 ---- 2.12 35 66.65 5082 12.06
05/02 01:00 ---- 2.13 36 66.15 5046 11.98
05/02 02:00 ---- 2.11 34 65.70 4199 12.00
05/02 03:00 ---- 2.11 34 65.19 5780 12.00
05/02 04:00 ---- 2.10 33 64.69 5819 11.98
05/02 05:00 ---- 2.12 35 64.15 5832 11.96
05/02 06:00 ---- 2.11 34 63.61 5813 11.94
05/02 07:00 ---- 2.11 34 63.07 5782 11.92
05/02 08:00 ---- 2.11 34 62.74 5711 11.94
05/02 09:00 ---- 2.10 33 62.89 5628 11.96
05/02 10:00 ---- 2.08 32 63.54 5507 13.04
05/02 11:00 ---- 2.09 33 64.60 5438 13.13
05/02 12:00 ---- 2.10 33 66.18 5442 12.76
05/02 13:00 ---- 2.11 34 68.00 5382 12.65
05/02 14:00 ---- 2.13 36 70.09 5369 12.37
05/02 15:00 ---- 2.15 37 72.10 5357 12.36
05/02 16:00 ---- 2.17 39 73.47 5325 12.32
05/02 17:00 ---- 2.18 40 74.55 5246 12.29
05/02 18:00 ---- 2.18 40 74.35 5183 12.20
05/02 19:00 ---- 2.19 41 73.62 4884 12.14
05/02 20:00 ---- 2.18 40 73.04 4495 12.11
05/02 21:00 ---- 2.16 38 72.41 4262 12.11
05/02 22:00 ---- 2.16 38 71.91 4112 12.11
05/02 23:00 ---- 2.16 38 71.42 3885 12.02
Data processed at Sun 03May2026 04:58 GMT

NOTICE: If you are parsing this page

Please convert to using our Data API. Starting early 2026 we will be migrating to: https://water.usace.army.mil with modern pages rendered in JavaScript. When this migration completes you will no longer be able to scrape this page! CWMSDataAPI (CDA)

Timeseries IDs (TSIDs)

TSIDs used from left to right in the data table
WFAL.Precip-Inc.Total.1Hour.1Hour.Ccp-Rev
WFAL.Stage.Inst.1Hour.0.Ccp-Rev
WFAL.Flow.Inst.1Hour.0.Ccp-Rev
WFAL.Temp-Water.Inst.1Hour.0.Ccp-Rev
WFAL.Cond-Water.Inst.1Hour.0.Ccp-Rev
WFAL.Volt-Battery Load.Inst.1Hour.0.Ccp-Rev

                            

All information presented herein is the property of the government of the United States of America and may be revised or deleted at any time without prior notice. Dissemination of this information without the expressed written consent of the Public Affairs Office, Tulsa District U.S. Army Corps of Engineers is strictly prohibited. These data are gathered electronically and, as presented, have NOT undergone any form of quality control. These data are NOT guaranteed to be valid or correct.